.
WxDataArchive / Data Records for 2012-04-14
2012-04-13 April 2012 2012-04-15

Data Records for Saturday, 14 April 2012

Time	Temp	Chill	HIndex	Humid	Dewpt	 Wind 	HiWind	WindDir	Rain 	Barom 
-----	----	-----	------	-----	-----	------	------	-------	-----	----- 
00:00	54.1	54.1	54.1	41	30.9	0	0	---	0.00	30.090 
00:05	53.6	53.6	53.6	42	31.1	0	0	---	0.00	30.090 
00:10	53.2	53.2	53.2	43	31.3	0	0	---	0.00	30.090 
00:15	52.8	52.8	52.8	43	30.9	0	0	---	0.00	30.088 
00:20	52.3	52.3	52.3	43	30.5	0	0	---	0.00	30.088 
00:25	52.0	52.0	52.0	45	31.3	0	0	---	0.00	30.088 
00:30	51.6	51.6	51.6	45	31.0	0	0	---	0.00	30.092 
00:35	51.4	51.4	51.4	47	31.9	0	0	---	0.00	30.092 
00:40	51.3	51.3	51.3	49	32.8	0	0	---	0.00	30.092 
00:45	51.3	51.3	51.3	48	32.3	0	1	112	0.00	30.081 
00:50	51.3	51.3	51.3	49	32.8	0	1	112	0.00	30.081 
00:55	51.3	51.3	51.3	48	32.3	0	0	---	0.00	30.081 
01:00	51.3	51.3	51.3	48	32.3	0	0	---	0.00	30.080 
01:05	51.1	51.1	51.1	50	33.1	0	1	112	0.00	30.080 
01:10	50.8	50.8	50.8	50	32.8	0	0	---	0.00	30.080 
01:15	50.5	50.5	50.5	51	33.1	0	0	---	0.00	30.083 
01:20	50.4	50.4	50.4	52	33.4	0	0	---	0.00	30.083 
01:25	49.9	49.9	49.9	52	33.0	0	0	---	0.00	30.083 
01:30	49.6	49.6	49.6	52	32.7	0	0	---	0.00	30.088 
01:35	49.5	49.5	49.5	52	32.6	0	0	---	0.00	30.088 
01:40	49.4	49.4	49.4	53	33.0	0	0	---	0.00	30.088 
01:45	49.2	49.2	49.2	54	33.3	0	1	112	0.00	30.089 
01:50	49.1	49.1	49.1	53	32.7	0	0	---	0.00	30.089 
01:55	48.9	48.9	48.9	53	32.5	0	0	---	0.00	30.089 
02:00	48.9	48.9	48.9	53	32.5	0	0	---	0.00	30.091 
02:05	48.9	48.9	48.9	55	33.5	0	0	---	0.00	30.091 
02:10	48.9	48.9	48.9	55	33.5	0	0	---	0.00	30.091 
02:15	48.8	48.8	48.8	55	33.4	0	0	---	0.00	30.081 
02:20	48.8	48.8	48.8	55	33.4	0	0	---	0.00	30.081 
02:25	48.6	48.6	48.6	55	33.2	0	0	---	0.00	30.081 
02:30	48.6	48.6	48.6	54	32.7	0	0	---	0.00	30.077 
02:35	48.6	48.6	48.6	56	33.6	0	0	---	0.00	30.077 
02:40	49.1	49.1	49.1	54	33.2	0	1	112	0.00	30.077 
02:45	49.5	49.5	49.5	52	32.6	0	0	---	0.00	30.066 
02:50	49.8	49.8	49.8	53	33.4	0	0	---	0.00	30.066 
02:55	49.9	49.9	49.9	54	33.9	0	0	---	0.00	30.066 
03:00	50.1	50.1	50.1	53	33.6	0	0	---	0.00	30.058 
03:05	50.4	50.4	50.4	51	33.0	0	0	---	0.00	30.058 
03:10	50.5	50.5	50.5	50	32.6	0	0	---	0.00	30.058 
03:15	50.8	50.8	50.8	51	33.3	0	0	---	0.00	30.053 
03:20	51.1	51.1	51.1	50	33.1	0	0	---	0.00	30.053 
03:25	51.6	51.6	51.6	50	33.6	0	0	---	0.00	30.053 
03:30	51.9	51.9	51.9	48	32.8	0	0	---	0.00	30.049 
03:35	52.0	52.0	52.0	48	32.9	0	0	---	0.00	30.049 
03:40	52.3	52.3	52.3	48	33.2	0	1	112	0.00	30.049 
03:45	52.6	52.6	52.6	50	34.5	0	0	---	0.00	30.051 
03:50	52.6	52.6	52.6	50	34.5	0	0	---	0.00	30.051 
03:55	52.8	52.8	52.8	49	34.2	0	0	---	0.00	30.051 
04:00	52.8	52.8	52.8	49	34.2	0	0	---	0.00	30.052 
04:05	52.9	52.9	52.9	49	34.3	0	0	---	0.00	30.052 
04:10	52.9	52.9	52.9	50	34.8	0	0	---	0.00	30.052 
04:15	52.9	52.9	52.9	50	34.8	0	0	---	0.00	30.055 
04:20	53.1	53.1	53.1	52	35.9	0	0	---	0.00	30.055 
04:25	53.1	53.1	53.1	54	36.9	0	0	---	0.00	30.055 
04:30	52.9	52.9	52.9	56	37.6	0	0	---	0.00	30.042 
04:35	52.9	52.9	52.9	57	38.1	0	0	---	0.00	30.042 
04:40	52.8	52.8	52.8	60	39.3	0	0	---	0.00	30.042 
04:45	52.8	52.8	52.8	60	39.3	0	0	---	0.00	30.038 
04:50	52.6	52.6	52.6	62	40.0	0	0	---	0.00	30.038 
04:55	52.6	52.6	52.6	62	40.0	0	0	---	0.00	30.038 
05:00	52.5	52.5	52.5	62	39.9	0	0	---	0.00	30.038 
05:05	52.3	52.3	52.3	60	38.8	0	0	---	0.00	30.038 
05:10	52.3	52.3	52.3	60	38.8	0	0	---	0.00	30.038 
05:15	52.5	52.5	52.5	61	39.4	0	1	112	0.00	30.035 
05:20	52.6	52.6	52.6	60	39.1	0	1	112	0.00	30.035 
05:25	52.6	52.6	52.6	59	38.7	0	0	---	0.00	30.035 
05:30	52.6	52.6	52.6	57	37.8	0	0	---	0.00	30.027 
05:35	52.6	52.6	52.6	56	37.4	0	1	112	0.00	30.027 
05:40	52.8	52.8	52.8	56	37.5	0	0	---	0.00	30.027 
05:45	52.8	52.8	52.8	56	37.5	0	0	---	0.00	30.034 
05:50	52.8	52.8	52.8	56	37.5	0	2	112	0.00	30.034 
05:55	52.9	52.9	52.9	58	38.5	0	0	---	0.00	30.034 
06:00	52.9	52.9	52.9	60	39.4	0	1	112	0.00	30.030 
06:05	52.8	52.8	52.8	60	39.3	0	1	112	0.00	30.030 
06:10	52.6	52.6	52.6	60	39.1	0	1	112	0.00	30.030 
06:15	52.6	52.6	52.6	60	39.1	0	0	---	0.00	30.037 
06:20	52.6	52.6	52.6	63	40.4	0	0	---	0.00	30.037 
06:25	52.5	52.5	52.5	66	41.5	0	0	---	0.00	30.037 
06:30	52.2	52.2	52.2	69	42.3	0	0	---	0.00	30.027 
06:35	52.0	52.0	52.0	70	42.5	0	0	---	0.00	30.027 
06:40	51.7	51.7	51.7	71	42.6	0	0	---	0.00	30.027 
06:45	51.6	51.6	51.6	72	42.9	0	0	---	0.00	30.026 
06:50	51.6	51.6	51.6	72	42.9	0	0	---	0.00	30.026 
06:55	51.4	51.4	51.4	71	42.3	0	0	---	0.00	30.026 
07:00	51.4	51.4	51.4	71	42.3	0	0	---	0.00	30.025 
07:05	51.4	51.4	51.4	68	41.2	0	1	112	0.00	30.025 
07:10	51.7	51.7	51.7	66	40.7	0	2	112	0.00	30.025 
07:15	52.0	52.0	52.0	65	40.6	0	1	112	0.00	30.019 
07:20	52.3	52.3	52.3	64	40.5	0	0	---	0.00	30.019 
07:25	52.6	52.6	52.6	64	40.8	0	0	---	0.00	30.019 
07:30	52.8	52.8	52.8	63	40.6	0	2	112	0.00	30.026 
07:35	53.1	53.1	53.1	62	40.4	0	1	112	0.00	30.026 
07:40	53.3	53.3	53.3	61	40.2	0	2	248	0.00	30.026 
07:45	53.5	53.5	53.5	62	40.8	0	3	248	0.00	30.028 
07:50	53.6	53.6	53.6	65	42.1	0	1	248	0.01	30.028 
07:55	53.3	53.3	53.3	67	42.6	0	1	248	0.00	30.028 
08:00	52.9	52.9	52.9	68	42.6	0	2	248	0.00	30.025 
08:05	52.8	52.8	52.8	69	42.9	0	1	248	0.00	30.025 
08:10	52.6	52.6	52.6	70	43.1	0	0	---	0.00	30.025 
08:15	52.5	52.5	52.5	72	43.7	0	0	---	0.01	30.028 
08:20	52.3	52.3	52.3	74	44.3	0	0	---	0.00	30.028 
08:25	52.2	52.2	52.2	75	44.5	0	0	---	0.00	30.028 
08:30	51.9	51.9	51.9	77	44.9	0	0	---	0.00	30.030 
08:35	51.7	51.7	51.7	78	45.1	0	0	---	0.00	30.030 
08:40	51.6	51.6	51.6	79	45.3	0	0	---	0.00	30.030 
08:45	51.6	51.6	51.6	79	45.3	0	0	---	0.00	30.029 
08:50	51.6	51.6	51.6	79	45.3	0	1	248	0.00	30.029 
08:55	51.6	51.6	51.6	80	45.6	0	0	---	0.00	30.029 
09:00	51.6	51.6	51.6	79	45.3	0	1	248	0.00	30.026 
09:05	51.7	51.7	51.7	78	45.1	0	1	248	0.00	30.026 
09:10	51.9	51.9	51.9	78	45.3	0	1	248	0.00	30.026 
09:15	52.0	52.0	52.0	78	45.4	0	1	248	0.00	30.019 
09:20	52.2	52.2	52.2	79	45.9	0	1	248	0.00	30.019 
09:25	52.5	52.5	52.5	79	46.2	0	1	248	0.00	30.019 
09:30	52.5	52.5	52.5	79	46.2	0	0	---	0.00	30.018 
09:35	52.6	52.6	52.6	78	45.9	0	0	---	0.00	30.018 
09:40	52.8	52.8	52.8	77	45.8	0	1	248	0.00	30.018 
09:45	52.9	52.9	52.9	77	45.9	0	0	---	0.00	30.031 
09:50	53.2	53.2	53.2	78	46.5	0	0	---	0.00	30.031 
09:55	53.5	53.5	53.5	77	46.5	0	0	---	0.00	30.031 
10:00	53.8	53.8	53.8	76	46.4	0	1	248	0.00	30.027 
10:05	54.1	54.1	54.1	75	46.4	0	1	248	0.00	30.027 
10:10	54.4	54.4	54.4	73	45.9	0	1	248	0.00	30.027 
10:15	54.7	54.7	54.7	73	46.2	0	0	---	0.00	30.022 
10:20	54.8	54.8	54.8	73	46.3	0	0	---	0.00	30.022 
10:25	55.1	55.1	55.1	73	46.6	0	0	---	0.00	30.022 
10:30	55.4	55.4	55.4	73	46.9	0	0	---	0.00	30.015 
10:35	55.7	55.7	55.7	71	46.4	0	1	248	0.00	30.015 
10:40	55.9	55.9	55.9	69	45.9	0	1	248	0.00	30.015 
10:45	56.2	56.2	56.2	70	46.5	0	0	---	0.00	30.014 
10:50	56.5	56.5	56.5	70	46.8	0	0	---	0.00	30.014 
10:55	56.6	56.6	56.6	70	46.9	0	1	248	0.00	30.014 
11:00	56.7	56.7	56.7	70	47.0	0	0	---	0.00	30.015 
11:05	57.0	57.0	57.0	70	47.3	0	1	248	0.00	30.015 
11:10	57.2	57.2	57.2	69	47.1	0	0	---	0.00	30.015 
11:15	57.6	57.6	57.6	68	47.1	0	2	248	0.00	30.015 
11:20	58.0	58.0	58.0	67	47.1	0	2	248	0.00	30.015 
11:25	58.1	58.1	58.1	65	46.4	0	3	90	0.00	30.015 
11:30	58.4	58.4	58.4	64	46.3	0	3	90	0.00	30.010 
11:35	58.4	58.4	58.4	64	46.3	0	3	90	0.00	30.010 
11:40	58.6	58.6	58.6	63	46.0	1	2	292	0.00	30.010 
11:45	58.9	58.9	58.9	64	46.7	0	3	292	0.00	30.009 
11:50	59.0	59.0	59.0	63	46.4	1	3	248	0.00	30.009 
11:55	59.5	59.5	59.5	64	47.3	1	3	248	0.00	30.009 
12:00	59.9	59.9	59.9	63	47.3	1	3	248	0.00	30.005 
12:05	60.4	60.4	60.4	63	47.7	1	3	248	0.00	30.005 
12:10	61.0	61.0	61.0	63	48.3	1	4	248	0.00	30.005 
12:15	61.3	61.3	61.3	63	48.6	1	2	248	0.00	29.997 
12:20	61.6	61.6	61.6	62	48.4	1	5	248	0.00	29.997 
12:25	61.6	61.6	61.6	64	49.3	0	3	248	0.00	29.997 
12:30	62.0	62.0	62.0	65	50.1	0	2	248	0.00	29.998 
12:35	62.1	62.1	62.1	65	50.2	0	3	248	0.00	29.998 
12:40	62.4	62.4	62.4	66	50.9	0	2	248	0.00	29.998 
12:45	62.6	62.6	62.6	65	50.7	0	2	248	0.00	29.993 
12:50	62.7	62.7	62.7	65	50.8	1	3	248	0.00	29.993 
12:55	62.9	62.9	62.9	64	50.5	1	4	248	0.00	29.993 
13:00	63.1	63.1	63.1	66	51.6	1	2	45	0.00	29.994 
13:05	63.1	63.1	63.1	67	52.0	0	3	248	0.00	29.994 
13:10	63.4	63.4	63.4	68	52.6	0	3	270	0.00	29.994 
13:15	63.4	63.4	63.4	67	52.2	0	2	270	0.00	29.992 
13:20	63.5	63.5	63.5	68	52.7	0	2	45	0.00	29.992 
13:25	63.5	63.5	63.5	68	52.7	0	3	248	0.00	29.992 
13:30	63.5	63.5	63.5	69	53.1	1	2	248	0.00	29.989 
13:35	63.4	63.4	63.4	69	53.0	1	3	248	0.00	29.989 
13:40	63.4	63.4	63.4	70	53.4	1	6	248	0.00	29.989 
13:45	63.1	63.1	63.1	71	53.5	1	5	248	0.00	29.983 
13:50	62.7	62.7	62.7	72	53.5	1	6	248	0.00	29.983 
13:55	62.4	62.4	62.4	73	53.6	1	4	248	0.00	29.983 
14:00	62.1	62.1	62.1	74	53.7	1	4	248	0.00	29.981 
14:05	62.1	62.1	62.1	75	54.1	0	2	248	0.00	29.981 
14:10	62.0	62.0	62.0	76	54.3	1	2	248	0.00	29.981 
14:15	61.8	61.8	61.8	78	54.9	0	2	248	0.00	29.979 
14:20	61.5	61.5	61.5	79	54.9	0	2	248	0.00	29.979 
14:25	61.3	61.3	61.3	80	55.1	1	4	248	0.00	29.979 
14:30	61.2	61.2	61.2	80	55.0	0	3	248	0.00	29.974 
14:35	61.2	61.2	61.2	81	55.3	0	2	248	0.00	29.974 
14:40	61.2	61.2	61.2	81	55.3	0	1	248	0.00	29.974 
14:45	61.3	61.3	61.3	81	55.4	0	4	248	0.00	29.964 
14:50	61.3	61.3	61.3	81	55.4	1	3	248	0.00	29.964 
14:55	61.5	61.5	61.5	80	55.3	1	3	248	0.00	29.964 
15:00	61.3	61.3	61.3	81	55.4	1	4	248	0.00	29.962 
15:05	61.2	61.2	61.2	82	55.7	1	6	90	0.01	29.962 
15:10	61.0	61.0	61.0	83	55.8	1	4	90	0.00	29.962 
15:15	60.9	60.9	60.9	85	56.4	0	2	90	0.01	29.947 
15:20	60.7	60.7	60.7	86	56.5	0	3	90	0.00	29.947 
15:25	60.5	60.5	60.5	87	56.6	0	1	90	0.01	29.947 
15:30	60.1	60.1	60.1	87	56.2	0	1	90	0.00	29.952 
15:35	59.8	59.8	59.8	88	56.2	0	3	90	0.01	29.952 
15:40	59.5	59.5	59.5	88	55.9	0	2	90	0.01	29.952 
15:45	59.3	59.3	59.3	89	56.1	0	2	270	0.00	29.949 
15:50	59.3	59.3	59.3	90	56.4	0	2	292	0.00	29.949 
15:55	59.3	59.3	59.3	90	56.4	0	2	248	0.01	29.949 
16:00	59.2	59.2	59.2	90	56.3	1	3	248	0.00	29.952 
16:05	58.9	58.9	58.9	91	56.3	1	4	248	0.01	29.952 
16:10	58.9	58.9	58.9	91	56.3	0	2	248	0.00	29.952 
16:15	58.7	58.7	58.7	92	56.4	1	4	248	0.00	29.948 
16:20	58.9	58.9	58.9	92	56.6	1	5	248	0.00	29.948 
16:25	58.9	58.9	58.9	92	56.6	1	5	270	0.01	29.948 
16:30	58.7	58.7	58.7	92	56.4	1	5	292	0.00	29.945 
16:35	58.7	58.7	58.7	92	56.4	1	4	112	0.00	29.945 
16:40	58.6	58.6	58.6	92	56.3	1	3	225	0.00	29.945 
16:45	58.4	58.4	58.4	92	56.1	1	5	225	0.00	29.939 
16:50	58.3	58.3	58.3	92	56.0	1	3	0	0.00	29.939 
16:55	58.1	58.1	58.1	92	55.8	0	3	315	0.00	29.939 
17:00	58.0	58.0	58.0	92	55.7	0	2	292	0.00	29.938 
17:05	57.8	57.8	57.8	92	55.5	0	2	292	0.00	29.938 
17:10	57.6	57.6	57.6	92	55.3	1	3	292	0.00	29.938 
17:15	57.5	57.5	57.5	92	55.2	1	3	248	0.00	29.935 
17:20	57.3	57.3	57.3	92	55.0	1	4	248	0.00	29.935 
17:25	57.2	57.2	57.2	92	54.9	0	3	270	0.00	29.935 
17:30	57.0	57.0	57.0	92	54.7	1	4	248	0.00	29.928 
17:35	57.0	57.0	57.0	92	54.7	1	5	248	0.00	29.928 
17:40	57.0	57.0	57.0	92	54.7	0	2	292	0.00	29.928 
17:45	57.0	57.0	57.0	92	54.7	0	1	292	0.00	29.922 
17:50	57.0	57.0	57.0	92	54.7	0	2	292	0.00	29.922 
17:55	56.9	56.9	56.9	92	54.6	0	1	292	0.00	29.922 
18:00	56.9	56.9	56.9	92	54.6	0	2	292	0.00	29.913 
18:05	57.0	57.0	57.0	92	54.7	0	4	292	0.00	29.913 
18:10	57.0	57.0	57.0	92	54.7	0	2	292	0.00	29.913 
18:15	57.0	57.0	57.0	92	54.7	0	3	270	0.00	29.907 
18:20	57.0	57.0	57.0	92	54.7	0	2	270	0.00	29.907 
18:25	57.2	57.2	57.2	92	54.9	0	3	270	0.00	29.907 
18:30	57.2	57.2	57.2	92	54.9	0	2	270	0.00	29.903 
18:35	57.2	57.2	57.2	92	54.9	1	4	270	0.00	29.903 
18:40	57.2	57.2	57.2	92	54.9	2	5	248	0.00	29.903 
18:45	57.2	57.2	57.2	92	54.9	0	3	248	0.00	29.911 
18:50	57.2	57.2	57.2	92	54.9	1	4	248	0.00	29.911 
18:55	57.3	57.3	57.3	92	55.0	1	3	248	0.00	29.911 
19:00	57.3	57.3	57.3	92	55.0	0	6	248	0.00	29.917 
19:05	57.3	57.3	57.3	92	55.0	1	4	248	0.00	29.917 
19:10	57.3	57.3	57.3	92	55.0	0	3	248	0.00	29.917 
19:15	57.5	57.5	57.5	92	55.2	0	3	248	0.00	29.918 
19:20	57.5	57.5	57.5	92	55.2	0	2	248	0.00	29.918 
19:25	57.5	57.5	57.5	92	55.2	0	1	248	0.00	29.918 
19:30	57.5	57.5	57.5	92	55.2	0	2	248	0.00	29.919 
19:35	57.5	57.5	57.5	92	55.2	0	6	248	0.00	29.919 
19:40	57.5	57.5	57.5	92	55.2	0	3	248	0.00	29.919 
19:45	57.5	57.5	57.5	92	55.2	0	2	248	0.00	29.927 
19:50	57.5	57.5	57.5	92	55.2	0	3	248	0.00	29.927 
19:55	57.5	57.5	57.5	92	55.2	0	3	248	0.00	29.927 
20:00	57.5	57.5	57.5	92	55.2	0	3	248	0.00	29.932 
20:05	57.5	57.5	57.5	92	55.2	0	1	248	0.00	29.932 
20:10	57.5	57.5	57.5	92	55.2	0	1	248	0.00	29.932 
20:15	57.5	57.5	57.5	92	55.2	0	1	248	0.00	29.930 
20:20	57.5	57.5	57.5	92	55.2	0	1	248	0.00	29.930 
20:25	57.5	57.5	57.5	92	55.2	0	1	248	0.00	29.930 
20:30	57.5	57.5	57.5	92	55.2	0	1	248	0.00	29.926 
20:35	57.5	57.5	57.5	92	55.2	0	1	248	0.00	29.926 
20:40	57.5	57.5	57.5	92	55.2	0	1	248	0.00	29.926 
20:45	57.5	57.5	57.5	92	55.2	0	0	---	0.00	29.933 
20:50	57.5	57.5	57.5	92	55.2	0	0	---	0.00	29.933 
20:55	57.5	57.5	57.5	92	55.2	0	0	---	0.00	29.933 
21:00	57.3	57.3	57.3	92	55.0	0	0	---	0.00	29.943 
21:05	57.5	57.5	57.5	93	55.5	0	0	---	0.00	29.943 
21:10	57.5	57.5	57.5	93	55.5	0	0	---	0.00	29.943 
21:15	57.5	57.5	57.5	93	55.5	0	0	---	0.00	29.942 
21:20	57.5	57.5	57.5	93	55.5	0	0	---	0.00	29.942 
21:25	57.5	57.5	57.5	93	55.5	0	1	248	0.00	29.942 
21:30	57.5	57.5	57.5	93	55.5	0	0	---	0.00	29.946 
21:35	57.5	57.5	57.5	93	55.5	0	0	---	0.00	29.946 
21:40	57.5	57.5	57.5	93	55.5	0	0	---	0.00	29.946 
21:45	57.5	57.5	57.5	93	55.5	0	0	---	0.00	29.944 
21:50	57.5	57.5	57.5	93	55.5	0	0	---	0.00	29.944 
21:55	57.5	57.5	57.5	93	55.5	0	0	---	0.00	29.944 
22:00	57.5	57.5	57.5	93	55.5	0	0	---	0.00	29.931 
22:05	57.5	57.5	57.5	93	55.5	0	0	---	0.00	29.931 
22:10	57.5	57.5	57.5	93	55.5	0	0	---	0.00	29.931 
22:15	57.5	57.5	57.5	93	55.5	0	1	248	0.00	29.932 
22:20	57.5	57.5	57.5	93	55.5	0	0	---	0.00	29.932 
22:25	57.5	57.5	57.5	94	55.8	0	0	---	0.00	29.932 
22:30	57.5	57.5	57.5	94	55.8	0	0	---	0.00	29.933 
22:35	57.5	57.5	57.5	94	55.8	0	1	248	0.00	29.933 
22:40	57.5	57.5	57.5	94	55.8	0	1	248	0.00	29.933 
22:45	57.6	57.6	57.6	94	55.9	0	1	248	0.00	29.930 
22:50	57.6	57.6	57.6	94	55.9	0	0	---	0.00	29.930 
22:55	57.6	57.6	57.6	94	55.9	0	1	248	0.00	29.930 
23:00	57.6	57.6	57.6	94	55.9	0	1	248	0.00	29.914 
23:05	57.8	57.8	57.8	94	56.1	0	1	248	0.00	29.914 
23:10	58.0	58.0	58.0	94	56.3	0	1	248	0.00	29.914 
23:15	58.0	58.0	58.0	94	56.3	0	1	248	0.00	29.910 
23:20	58.0	58.0	58.0	94	56.3	0	1	248	0.00	29.910 
23:25	58.0	58.0	58.0	94	56.3	0	0	---	0.00	29.910 
23:30	57.8	57.8	57.8	94	56.1	0	1	248	0.00	29.916 
23:35	57.6	57.6	57.6	94	55.9	0	0	---	0.00	29.916 
23:40	57.5	57.5	57.5	94	55.8	0	0	---	0.00	29.916 
23:45	57.3	57.3	57.3	94	55.6	0	0	---	0.00	29.924 
23:50	57.0	57.0	57.0	94	55.3	0	0	---	0.00	29.924 
23:55	57.0	57.0	57.0	94	55.3	0	0	---	0.00	29.924 

CoCoRaHS
IN-AL-39
A2 Web Hosting
Creative Commons License
GoDaddy
search engine by freefind advanced

loaded 2018-11-20 06:22:50 • last modified 2010-11-18 10:43:29
Privacy PolicyDisclaimer
• wx.awcolley.com is powered by PmWiki v.2002016 •
• all content (unless otherwise noted) © 2018 A W Colley